sensor_id;sensor_type;location;lat;lon;timestamp;P1;durP1;ratioP1;P2;durP2;ratioP2
75171;SDS011;63750;52.418;20.742;2023-05-14T00:02:05;29.00;;;25.90;;
75171;SDS011;63750;52.418;20.742;2023-05-14T00:04:32;27.20;;;24.50;;
75171;SDS011;63750;52.418;20.742;2023-05-14T00:06:59;33.60;;;26.20;;
75171;SDS011;63750;52.418;20.742;2023-05-14T00:09:26;27.90;;;25.10;;
75171;SDS011;63750;52.418;20.742;2023-05-14T00:11:52;28.60;;;25.80;;
75171;SDS011;63750;52.418;20.742;2023-05-14T00:14:19;28.30;;;25.40;;
75171;SDS011;63750;52.418;20.742;2023-05-14T00:16:47;28.40;;;25.50;;
75171;SDS011;63750;52.418;20.742;2023-05-14T00:19:15;27.50;;;24.70;;
75171;SDS011;63750;52.418;20.742;2023-05-14T00:21:42;28.60;;;25.80;;
75171;SDS011;63750;52.418;20.742;2023-05-14T00:24:09;25.80;;;23.20;;
75171;SDS011;63750;52.418;20.742;2023-05-14T00:26:36;25.40;;;22.70;;
75171;SDS011;63750;52.418;20.742;2023-05-14T00:29:03;26.80;;;24.10;;
75171;SDS011;63750;52.418;20.742;2023-05-14T00:31:30;25.60;;;23.10;;
75171;SDS011;63750;52.418;20.742;2023-05-14T00:33:57;25.70;;;23.10;;
75171;SDS011;63750;52.418;20.742;2023-05-14T00:36:24;26.50;;;24.10;;
75171;SDS011;63750;52.418;20.742;2023-05-14T00:38:51;27.80;;;24.90;;
75171;SDS011;63750;52.418;20.742;2023-05-14T00:41:18;27.60;;;24.80;;
75171;SDS011;63750;52.418;20.742;2023-05-14T00:43:45;26.20;;;23.50;;
75171;SDS011;63750;52.418;20.742;2023-05-14T00:46:12;28.10;;;25.40;;
75171;SDS011;63750;52.418;20.742;2023-05-14T00:48:40;30.90;;;27.50;;
75171;SDS011;63750;52.418;20.742;2023-05-14T00:51:07;30.70;;;27.60;;
75171;SDS011;63750;52.418;20.742;2023-05-14T00:53:34;30.10;;;27.00;;
75171;SDS011;63750;52.418;20.742;2023-05-14T00:56:02;32.10;;;28.90;;
75171;SDS011;63750;52.418;20.742;2023-05-14T00:58:30;35.30;;;31.80;;
75171;SDS011;63750;52.418;20.742;2023-05-14T01:00:57;36.70;;;33.10;;
75171;SDS011;63750;52.418;20.742;2023-05-14T01:03:24;36.10;;;32.30;;
75171;SDS011;63750;52.418;20.742;2023-05-14T01:05:53;37.10;;;33.40;;
75171;SDS011;63750;52.418;20.742;2023-05-14T01:08:29;36.20;;;32.70;;
75171;SDS011;63750;52.418;20.742;2023-05-14T01:11:04;35.20;;;31.70;;
75171;SDS011;63750;52.418;20.742;2023-05-14T01:13:38;34.70;;;31.30;;
75171;SDS011;63750;52.418;20.742;2023-05-14T01:16:12;35.60;;;32.10;;
75171;SDS011;63750;52.418;20.742;2023-05-14T01:18:41;35.30;;;32.00;;
75171;SDS011;63750;52.418;20.742;2023-05-14T01:24:08;37.10;;;33.40;;
75171;SDS011;63750;52.418;20.742;2023-05-14T01:26:36;36.60;;;32.80;;
75171;SDS011;63750;52.418;20.742;2023-05-14T01:29:08;37.30;;;33.60;;
75171;SDS011;63750;52.418;20.742;2023-05-14T01:31:41;35.70;;;32.10;;
75171;SDS011;63750;52.418;20.742;2023-05-14T01:34:10;36.90;;;33.10;;
75171;SDS011;63750;52.418;20.742;2023-05-14T01:36:39;35.70;;;32.00;;
75171;SDS011;63750;52.418;20.742;2023-05-14T01:39:07;36.00;;;32.30;;
75171;SDS011;63750;52.418;20.742;2023-05-14T01:41:37;32.80;;;29.60;;
75171;SDS011;63750;52.418;20.742;2023-05-14T01:44:04;31.50;;;28.40;;
75171;SDS011;63750;52.418;20.742;2023-05-14T01:46:33;32.20;;;28.90;;
75171;SDS011;63750;52.418;20.742;2023-05-14T01:49:00;30.80;;;27.80;;
75171;SDS011;63750;52.418;20.742;2023-05-14T01:51:27;31.40;;;28.20;;
75171;SDS011;63750;52.418;20.742;2023-05-14T01:53:54;31.00;;;28.00;;
75171;SDS011;63750;52.418;20.742;2023-05-14T01:56:22;31.00;;;27.90;;
75171;SDS011;63750;52.418;20.742;2023-05-14T01:58:49;31.50;;;28.40;;
75171;SDS011;63750;52.418;20.742;2023-05-14T02:01:16;31.10;;;27.80;;
75171;SDS011;63750;52.418;20.742;2023-05-14T02:03:43;30.40;;;27.50;;
75171;SDS011;63750;52.418;20.742;2023-05-14T02:06:10;30.60;;;27.40;;
75171;SDS011;63750;52.418;20.742;2023-05-14T02:08:37;30.80;;;27.90;;
75171;SDS011;63750;52.418;20.742;2023-05-14T02:11:04;31.10;;;27.80;;
75171;SDS011;63750;52.418;20.742;2023-05-14T02:13:31;30.50;;;27.40;;
75171;SDS011;63750;52.418;20.742;2023-05-14T02:15:58;29.90;;;27.10;;
75171;SDS011;63750;52.418;20.742;2023-05-14T02:18:25;30.20;;;27.30;;
75171;SDS011;63750;52.418;20.742;2023-05-14T02:20:52;29.60;;;26.50;;
75171;SDS011;63750;52.418;20.742;2023-05-14T02:23:19;29.00;;;26.40;;
75171;SDS011;63750;52.418;20.742;2023-05-14T02:25:46;30.30;;;27.30;;
75171;SDS011;63750;52.418;20.742;2023-05-14T02:28:13;33.80;;;30.60;;
75171;SDS011;63750;52.418;20.742;2023-05-14T02:30:40;40.20;;;36.40;;
75171;SDS011;63750;52.418;20.742;2023-05-14T02:33:07;48.70;;;44.40;;
75171;SDS011;63750;52.418;20.742;2023-05-14T02:35:34;85.80;;;78.90;;
75171;SDS011;63750;52.418;20.742;2023-05-14T02:38:04;105.70;;;97.20;;
75171;SDS011;63750;52.418;20.742;2023-05-14T02:40:31;113.40;;;104.20;;
75171;SDS011;63750;52.418;20.742;2023-05-14T02:42:58;121.90;;;112.10;;
75171;SDS011;63750;52.418;20.742;2023-05-14T02:45:25;139.70;;;128.10;;
75171;SDS011;63750;52.418;20.742;2023-05-14T02:47:52;126.60;;;116.10;;
75171;SDS011;63750;52.418;20.742;2023-05-14T02:50:22;95.30;;;87.00;;
75171;SDS011;63750;52.418;20.742;2023-05-14T02:52:49;75.60;;;68.60;;
75171;SDS011;63750;52.418;20.742;2023-05-14T02:55:16;75.90;;;69.10;;
75171;SDS011;63750;52.418;20.742;2023-05-14T02:57:45;82.40;;;74.90;;
75171;SDS011;63750;52.418;20.742;2023-05-14T03:00:12;76.60;;;69.70;;
75171;SDS011;63750;52.418;20.742;2023-05-14T03:02:40;59.30;;;53.80;;
75171;SDS011;63750;52.418;20.742;2023-05-14T03:05:07;56.30;;;51.10;;
75171;SDS011;63750;52.418;20.742;2023-05-14T03:07:34;50.80;;;46.10;;
75171;SDS011;63750;52.418;20.742;2023-05-14T03:10:01;50.90;;;46.00;;
75171;SDS011;63750;52.418;20.742;2023-05-14T03:12:29;49.00;;;44.50;;
75171;SDS011;63750;52.418;20.742;2023-05-14T03:14:56;46.90;;;42.50;;
75171;SDS011;63750;52.418;20.742;2023-05-14T03:17:24;45.30;;;41.00;;
75171;SDS011;63750;52.418;20.742;2023-05-14T03:19:51;41.10;;;37.30;;
75171;SDS011;63750;52.418;20.742;2023-05-14T03:22:18;38.10;;;34.50;;
75171;SDS011;63750;52.418;20.742;2023-05-14T03:24:45;37.10;;;33.50;;
75171;SDS011;63750;52.418;20.742;2023-05-14T03:27:12;38.70;;;35.10;;
75171;SDS011;63750;52.418;20.742;2023-05-14T03:29:39;39.20;;;35.50;;
75171;SDS011;63750;52.418;20.742;2023-05-14T03:32:06;36.20;;;32.90;;
75171;SDS011;63750;52.418;20.742;2023-05-14T03:34:33;34.10;;;30.70;;
75171;SDS011;63750;52.418;20.742;2023-05-14T03:37:00;29.90;;;27.10;;
75171;SDS011;63750;52.418;20.742;2023-05-14T03:39:28;28.30;;;25.60;;
75171;SDS011;63750;52.418;20.742;2023-05-14T03:41:55;25.80;;;23.50;;
75171;SDS011;63750;52.418;20.742;2023-05-14T03:44:22;26.00;;;23.50;;
75171;SDS011;63750;52.418;20.742;2023-05-14T03:46:49;25.80;;;23.50;;
75171;SDS011;63750;52.418;20.742;2023-05-14T03:49:16;26.90;;;24.40;;
75171;SDS011;63750;52.418;20.742;2023-05-14T03:51:43;25.40;;;23.10;;
75171;SDS011;63750;52.418;20.742;2023-05-14T03:54:10;25.80;;;23.30;;
75171;SDS011;63750;52.418;20.742;2023-05-14T03:56:37;26.20;;;23.80;;
75171;SDS011;63750;52.418;20.742;2023-05-14T03:59:04;24.70;;;22.30;;
75171;SDS011;63750;52.418;20.742;2023-05-14T04:01:31;23.50;;;21.40;;
75171;SDS011;63750;52.418;20.742;2023-05-14T04:03:58;24.30;;;22.10;;
75171;SDS011;63750;52.418;20.742;2023-05-14T04:06:25;25.40;;;22.90;;
75171;SDS011;63750;52.418;20.742;2023-05-14T04:08:52;24.80;;;22.20;;
75171;SDS011;63750;52.418;20.742;2023-05-14T04:11:19;23.80;;;21.50;;
75171;SDS011;63750;52.418;20.742;2023-05-14T04:13:46;24.70;;;22.20;;
75171;SDS011;63750;52.418;20.742;2023-05-14T04:16:13;24.70;;;22.40;;
75171;SDS011;63750;52.418;20.742;2023-05-14T04:18:40;25.10;;;22.60;;
75171;SDS011;63750;52.418;20.742;2023-05-14T04:21:07;23.60;;;21.40;;
75171;SDS011;63750;52.418;20.742;2023-05-14T04:23:34;23.80;;;21.50;;
75171;SDS011;63750;52.418;20.742;2023-05-14T04:26:01;24.80;;;22.40;;
75171;SDS011;63750;52.418;20.742;2023-05-14T04:28:28;24.40;;;22.10;;
75171;SDS011;63750;52.418;20.742;2023-05-14T04:30:55;23.70;;;21.30;;
75171;SDS011;63750;52.418;20.742;2023-05-14T04:33:23;25.30;;;23.00;;
75171;SDS011;63750;52.418;20.742;2023-05-14T04:35:50;23.60;;;21.30;;
75171;SDS011;63750;52.418;20.742;2023-05-14T04:38:17;23.90;;;21.60;;
75171;SDS011;63750;52.418;20.742;2023-05-14T04:40:45;23.10;;;20.90;;
75171;SDS011;63750;52.418;20.742;2023-05-14T04:43:12;24.40;;;22.00;;
75171;SDS011;63750;52.418;20.742;2023-05-14T04:45:39;22.80;;;20.70;;
75171;SDS011;63750;52.418;20.742;2023-05-14T04:48:06;23.10;;;20.80;;
75171;SDS011;63750;52.418;20.742;2023-05-14T04:50:33;23.70;;;21.30;;
75171;SDS011;63750;52.418;20.742;2023-05-14T04:53:00;22.90;;;20.80;;
75171;SDS011;63750;52.418;20.742;2023-05-14T04:55:27;23.50;;;21.30;;
75171;SDS011;63750;52.418;20.742;2023-05-14T04:57:55;22.70;;;20.40;;
75171;SDS011;63750;52.418;20.742;2023-05-14T05:00:22;21.90;;;19.80;;
75171;SDS011;63750;52.418;20.742;2023-05-14T05:02:49;21.90;;;19.90;;
75171;SDS011;63750;52.418;20.742;2023-05-14T05:05:16;20.90;;;19.00;;
75171;SDS011;63750;52.418;20.742;2023-05-14T05:07:43;21.60;;;19.60;;
75171;SDS011;63750;52.418;20.742;2023-05-14T05:10:10;21.20;;;19.30;;
75171;SDS011;63750;52.418;20.742;2023-05-14T05:12:38;20.80;;;18.90;;
75171;SDS011;63750;52.418;20.742;2023-05-14T05:15:07;20.80;;;18.80;;
75171;SDS011;63750;52.418;20.742;2023-05-14T05:17:35;20.80;;;18.80;;
75171;SDS011;63750;52.418;20.742;2023-05-14T05:20:02;20.10;;;18.30;;
75171;SDS011;63750;52.418;20.742;2023-05-14T05:22:30;19.40;;;17.40;;
75171;SDS011;63750;52.418;20.742;2023-05-14T05:24:57;20.30;;;18.40;;
75171;SDS011;63750;52.418;20.742;2023-05-14T05:27:25;20.20;;;18.10;;
75171;SDS011;63750;52.418;20.742;2023-05-14T05:29:52;19.40;;;17.60;;
75171;SDS011;63750;52.418;20.742;2023-05-14T05:32:19;19.40;;;17.60;;
75171;SDS011;63750;52.418;20.742;2023-05-14T05:34:46;19.00;;;17.20;;
75171;SDS011;63750;52.418;20.742;2023-05-14T05:37:14;19.30;;;17.40;;
75171;SDS011;63750;52.418;20.742;2023-05-14T05:39:41;18.90;;;17.10;;
75171;SDS011;63750;52.418;20.742;2023-05-14T05:42:08;18.50;;;16.90;;
75171;SDS011;63750;52.418;20.742;2023-05-14T05:44:35;18.50;;;16.80;;
75171;SDS011;63750;52.418;20.742;2023-05-14T05:47:02;18.40;;;16.50;;
75171;SDS011;63750;52.418;20.742;2023-05-14T05:49:29;18.70;;;17.00;;
75171;SDS011;63750;52.418;20.742;2023-05-14T05:51:56;21.40;;;16.70;;
75171;SDS011;63750;52.418;20.742;2023-05-14T05:54:23;17.50;;;15.60;;
75171;SDS011;63750;52.418;20.742;2023-05-14T05:56:50;17.70;;;16.00;;
75171;SDS011;63750;52.418;20.742;2023-05-14T05:59:17;17.60;;;16.00;;
75171;SDS011;63750;52.418;20.742;2023-05-14T06:01:44;17.00;;;15.40;;
75171;SDS011;63750;52.418;20.742;2023-05-14T06:04:11;17.30;;;15.70;;
75171;SDS011;63750;52.418;20.742;2023-05-14T06:06:38;16.20;;;14.70;;
75171;SDS011;63750;52.418;20.742;2023-05-14T06:09:05;16.30;;;14.80;;
75171;SDS011;63750;52.418;20.742;2023-05-14T06:11:32;16.10;;;14.40;;
75171;SDS011;63750;52.418;20.742;2023-05-14T06:13:59;16.20;;;14.50;;
75171;SDS011;63750;52.418;20.742;2023-05-14T06:16:26;17.10;;;15.60;;
75171;SDS011;63750;52.418;20.742;2023-05-14T06:18:54;16.90;;;15.20;;
75171;SDS011;63750;52.418;20.742;2023-05-14T06:21:21;15.60;;;14.20;;
75171;SDS011;63750;52.418;20.742;2023-05-14T06:23:48;15.40;;;13.90;;
75171;SDS011;63750;52.418;20.742;2023-05-14T06:26:15;14.80;;;13.50;;
75171;SDS011;63750;52.418;20.742;2023-05-14T06:28:42;15.40;;;13.90;;
75171;SDS011;63750;52.418;20.742;2023-05-14T06:31:09;15.00;;;13.40;;
75171;SDS011;63750;52.418;20.742;2023-05-14T06:33:36;14.80;;;13.40;;
75171;SDS011;63750;52.418;20.742;2023-05-14T06:36:04;13.20;;;11.50;;
75171;SDS011;63750;52.418;20.742;2023-05-14T06:38:32;14.00;;;12.60;;
75171;SDS011;63750;52.418;20.742;2023-05-14T06:40:59;14.30;;;13.00;;
75171;SDS011;63750;52.418;20.742;2023-05-14T06:43:26;13.60;;;12.20;;
75171;SDS011;63750;52.418;20.742;2023-05-14T06:45:53;14.00;;;12.60;;
75171;SDS011;63750;52.418;20.742;2023-05-14T06:48:20;14.20;;;12.70;;
75171;SDS011;63750;52.418;20.742;2023-05-14T06:50:47;13.90;;;12.60;;
75171;SDS011;63750;52.418;20.742;2023-05-14T06:53:15;14.00;;;12.60;;
75171;SDS011;63750;52.418;20.742;2023-05-14T06:55:42;15.50;;;14.10;;
75171;SDS011;63750;52.418;20.742;2023-05-14T06:58:09;17.10;;;15.30;;
75171;SDS011;63750;52.418;20.742;2023-05-14T07:00:36;14.80;;;13.40;;
75171;SDS011;63750;52.418;20.742;2023-05-14T07:03:03;14.70;;;12.20;;
75171;SDS011;63750;52.418;20.742;2023-05-14T07:05:30;14.30;;;12.80;;
75171;SDS011;63750;52.418;20.742;2023-05-14T07:07:57;13.60;;;12.20;;
75171;SDS011;63750;52.418;20.742;2023-05-14T07:10:25;13.50;;;12.10;;
75171;SDS011;63750;52.418;20.742;2023-05-14T07:12:52;16.80;;;14.20;;
75171;SDS011;63750;52.418;20.742;2023-05-14T07:15:18;14.00;;;12.30;;
75171;SDS011;63750;52.418;20.742;2023-05-14T07:17:45;13.50;;;12.10;;
75171;SDS011;63750;52.418;20.742;2023-05-14T07:20:12;13.70;;;12.40;;
75171;SDS011;63750;52.418;20.742;2023-05-14T07:22:39;14.60;;;13.20;;
75171;SDS011;63750;52.418;20.742;2023-05-14T07:25:07;14.40;;;12.70;;
75171;SDS011;63750;52.418;20.742;2023-05-14T07:27:34;17.30;;;13.70;;
75171;SDS011;63750;52.418;20.742;2023-05-14T07:30:01;18.80;;;16.90;;
75171;SDS011;63750;52.418;20.742;2023-05-14T07:32:29;14.30;;;12.80;;
75171;SDS011;63750;52.418;20.742;2023-05-14T07:34:56;16.20;;;13.30;;
75171;SDS011;63750;52.418;20.742;2023-05-14T07:37:23;16.00;;;14.30;;
75171;SDS011;63750;52.418;20.742;2023-05-14T07:39:51;15.00;;;13.40;;
75171;SDS011;63750;52.418;20.742;2023-05-14T07:42:18;15.40;;;13.60;;
75171;SDS011;63750;52.418;20.742;2023-05-14T07:44:45;14.50;;;13.10;;
75171;SDS011;63750;52.418;20.742;2023-05-14T07:47:12;14.00;;;12.30;;
75171;SDS011;63750;52.418;20.742;2023-05-14T07:49:39;14.90;;;12.00;;
75171;SDS011;63750;52.418;20.742;2023-05-14T07:52:06;13.40;;;12.10;;
75171;SDS011;63750;52.418;20.742;2023-05-14T07:54:34;14.30;;;12.30;;
75171;SDS011;63750;52.418;20.742;2023-05-14T07:57:01;11.20;;;9.90;;
75171;SDS011;63750;52.418;20.742;2023-05-14T07:59:28;12.70;;;10.90;;
75171;SDS011;63750;52.418;20.742;2023-05-14T08:01:55;10.80;;;9.70;;
75171;SDS011;63750;52.418;20.742;2023-05-14T08:04:22;10.50;;;9.40;;
75171;SDS011;63750;52.418;20.742;2023-05-14T08:06:49;10.90;;;8.30;;
75171;SDS011;63750;52.418;20.742;2023-05-14T08:09:16;9.90;;;9.00;;
75171;SDS011;63750;52.418;20.742;2023-05-14T08:11:43;9.40;;;8.40;;
75171;SDS011;63750;52.418;20.742;2023-05-14T08:14:10;9.40;;;8.30;;
75171;SDS011;63750;52.418;20.742;2023-05-14T08:16:37;9.00;;;8.10;;
75171;SDS011;63750;52.418;20.742;2023-05-14T08:19:04;9.50;;;8.00;;
75171;SDS011;63750;52.418;20.742;2023-05-14T08:21:31;8.40;;;7.60;;
75171;SDS011;63750;52.418;20.742;2023-05-14T08:23:58;8.50;;;7.60;;
75171;SDS011;63750;52.418;20.742;2023-05-14T08:26:25;16.40;;;14.70;;
75171;SDS011;63750;52.418;20.742;2023-05-14T08:28:52;8.00;;;7.20;;
75171;SDS011;63750;52.418;20.742;2023-05-14T08:31:19;14.30;;;12.40;;
75171;SDS011;63750;52.418;20.742;2023-05-14T08:33:46;12.10;;;10.40;;
75171;SDS011;63750;52.418;20.742;2023-05-14T08:36:13;8.60;;;7.20;;
75171;SDS011;63750;52.418;20.742;2023-05-14T08:38:40;9.30;;;8.20;;
75171;SDS011;63750;52.418;20.742;2023-05-14T08:41:07;8.20;;;7.50;;
75171;SDS011;63750;52.418;20.742;2023-05-14T08:43:36;8.50;;;7.60;;
75171;SDS011;63750;52.418;20.742;2023-05-14T08:46:10;8.40;;;7.50;;
75171;SDS011;63750;52.418;20.742;2023-05-14T08:48:39;8.40;;;6.90;;
75171;SDS011;63750;52.418;20.742;2023-05-14T08:51:10;8.00;;;6.90;;
75171;SDS011;63750;52.418;20.742;2023-05-14T08:53:38;8.90;;;7.20;;
75171;SDS011;63750;52.418;20.742;2023-05-14T08:56:05;7.50;;;6.70;;
75171;SDS011;63750;52.418;20.742;2023-05-14T08:58:34;7.20;;;6.60;;
75171;SDS011;63750;52.418;20.742;2023-05-14T09:01:01;7.20;;;6.60;;
75171;SDS011;63750;52.418;20.742;2023-05-14T09:03:28;7.10;;;6.40;;
75171;SDS011;63750;52.418;20.742;2023-05-14T09:05:56;8.20;;;6.60;;
75171;SDS011;63750;52.418;20.742;2023-05-14T09:08:24;9.50;;;7.20;;
75171;SDS011;63750;52.418;20.742;2023-05-14T09:10:51;7.10;;;6.40;;
75171;SDS011;63750;52.418;20.742;2023-05-14T09:13:18;7.60;;;6.80;;
75171;SDS011;63750;52.418;20.742;2023-05-14T09:15:45;8.70;;;6.10;;
75171;SDS011;63750;52.418;20.742;2023-05-14T09:18:13;6.50;;;5.90;;
75171;SDS011;63750;52.418;20.742;2023-05-14T09:20:40;8.80;;;8.00;;
75171;SDS011;63750;52.418;20.742;2023-05-14T09:23:07;8.10;;;7.30;;
75171;SDS011;63750;52.418;20.742;2023-05-14T09:25:34;7.40;;;6.60;;
75171;SDS011;63750;52.418;20.742;2023-05-14T09:28:05;7.00;;;6.30;;
75171;SDS011;63750;52.418;20.742;2023-05-14T09:30:33;6.90;;;5.80;;
75171;SDS011;63750;52.418;20.742;2023-05-14T09:33:00;8.20;;;5.80;;
75171;SDS011;63750;52.418;20.742;2023-05-14T09:35:27;6.00;;;5.10;;
75171;SDS011;63750;52.418;20.742;2023-05-14T09:37:54;6.50;;;5.20;;
75171;SDS011;63750;52.418;20.742;2023-05-14T09:40:22;6.60;;;6.00;;
75171;SDS011;63750;52.418;20.742;2023-05-14T09:42:49;7.40;;;6.30;;
75171;SDS011;63750;52.418;20.742;2023-05-14T09:45:16;7.60;;;6.10;;
75171;SDS011;63750;52.418;20.742;2023-05-14T09:47:43;6.60;;;5.70;;
75171;SDS011;63750;52.418;20.742;2023-05-14T09:50:10;6.30;;;5.70;;
75171;SDS011;63750;52.418;20.742;2023-05-14T09:52:37;6.40;;;5.70;;
75171;SDS011;63750;52.418;20.742;2023-05-14T09:55:05;6.00;;;5.50;;
75171;SDS011;63750;52.418;20.742;2023-05-14T09:57:33;6.20;;;5.50;;
75171;SDS011;63750;52.418;20.742;2023-05-14T10:00:00;6.20;;;5.00;;
75171;SDS011;63750;52.418;20.742;2023-05-14T10:02:29;6.20;;;5.70;;
75171;SDS011;63750;52.418;20.742;2023-05-14T10:05:02;5.70;;;5.20;;
75171;SDS011;63750;52.418;20.742;2023-05-14T10:07:32;6.00;;;5.20;;
75171;SDS011;63750;52.418;20.742;2023-05-14T10:10:05;7.00;;;4.60;;
75171;SDS011;63750;52.418;20.742;2023-05-14T10:12:38;6.30;;;5.40;;
75171;SDS011;63750;52.418;20.742;2023-05-14T10:15:08;6.50;;;5.30;;
75171;SDS011;63750;52.418;20.742;2023-05-14T10:17:47;5.70;;;4.70;;
75171;SDS011;63750;52.418;20.742;2023-05-14T10:20:18;5.10;;;4.60;;
75171;SDS011;63750;52.418;20.742;2023-05-14T10:22:45;5.40;;;4.90;;
75171;SDS011;63750;52.418;20.742;2023-05-14T10:25:13;5.20;;;4.70;;
75171;SDS011;63750;52.418;20.742;2023-05-14T10:27:40;6.00;;;4.90;;
75171;SDS011;63750;52.418;20.742;2023-05-14T10:30:10;5.40;;;4.90;;
75171;SDS011;63750;52.418;20.742;2023-05-14T10:32:38;5.40;;;4.70;;
75171;SDS011;63750;52.418;20.742;2023-05-14T10:35:14;5.30;;;4.90;;
75171;SDS011;63750;52.418;20.742;2023-05-14T10:37:43;5.90;;;5.00;;
75171;SDS011;63750;52.418;20.742;2023-05-14T10:40:11;5.80;;;4.70;;
75171;SDS011;63750;52.418;20.742;2023-05-14T10:42:38;5.60;;;4.60;;
75171;SDS011;63750;52.418;20.742;2023-05-14T10:45:07;5.20;;;4.70;;
75171;SDS011;63750;52.418;20.742;2023-05-14T10:47:36;4.90;;;4.30;;
75171;SDS011;63750;52.418;20.742;2023-05-14T10:50:04;5.70;;;5.10;;
75171;SDS011;63750;52.418;20.742;2023-05-14T10:52:34;5.20;;;4.70;;
75171;SDS011;63750;52.418;20.742;2023-05-14T10:55:01;5.10;;;4.70;;
75171;SDS011;63750;52.418;20.742;2023-05-14T10:57:31;5.30;;;4.80;;
75171;SDS011;63750;52.418;20.742;2023-05-14T11:00:00;4.80;;;4.40;;
75171;SDS011;63750;52.418;20.742;2023-05-14T11:02:29;5.40;;;4.90;;
75171;SDS011;63750;52.418;20.742;2023-05-14T11:04:58;5.20;;;4.80;;
75171;SDS011;63750;52.418;20.742;2023-05-14T11:07:27;6.70;;;6.10;;
75171;SDS011;63750;52.418;20.742;2023-05-14T11:09:58;5.40;;;4.90;;
75171;SDS011;63750;52.418;20.742;2023-05-14T11:12:27;5.40;;;4.90;;
75171;SDS011;63750;52.418;20.742;2023-05-14T11:14:54;5.20;;;4.70;;
75171;SDS011;63750;52.418;20.742;2023-05-14T11:17:23;5.60;;;5.00;;
75171;SDS011;63750;52.418;20.742;2023-05-14T11:19:51;9.70;;;6.30;;
75171;SDS011;63750;52.418;20.742;2023-05-14T11:22:18;7.10;;;5.60;;
75171;SDS011;63750;52.418;20.742;2023-05-14T11:24:45;5.40;;;4.80;;
75171;SDS011;63750;52.418;20.742;2023-05-14T11:27:12;5.70;;;5.10;;
75171;SDS011;63750;52.418;20.742;2023-05-14T11:29:42;5.30;;;4.80;;
75171;SDS011;63750;52.418;20.742;2023-05-14T11:32:10;5.90;;;5.40;;
75171;SDS011;63750;52.418;20.742;2023-05-14T11:34:38;5.50;;;5.00;;
75171;SDS011;63750;52.418;20.742;2023-05-14T11:37:06;6.90;;;5.40;;
75171;SDS011;63750;52.418;20.742;2023-05-14T11:39:34;5.80;;;5.10;;
75171;SDS011;63750;52.418;20.742;2023-05-14T11:42:01;5.50;;;5.00;;
75171;SDS011;63750;52.418;20.742;2023-05-14T11:44:29;6.20;;;4.60;;
75171;SDS011;63750;52.418;20.742;2023-05-14T11:46:57;5.90;;;5.00;;
75171;SDS011;63750;52.418;20.742;2023-05-14T11:49:24;5.80;;;5.20;;
75171;SDS011;63750;52.418;20.742;2023-05-14T11:51:56;4.70;;;4.40;;
75171;SDS011;63750;52.418;20.742;2023-05-14T11:54:24;5.80;;;5.30;;
75171;SDS011;63750;52.418;20.742;2023-05-14T11:56:52;5.20;;;4.80;;
75171;SDS011;63750;52.418;20.742;2023-05-14T11:59:20;5.80;;;5.20;;
75171;SDS011;63750;52.418;20.742;2023-05-14T12:01:48;5.50;;;5.00;;
75171;SDS011;63750;52.418;20.742;2023-05-14T12:04:16;5.30;;;4.90;;
75171;SDS011;63750;52.418;20.742;2023-05-14T12:06:43;5.10;;;4.60;;
75171;SDS011;63750;52.418;20.742;2023-05-14T12:09:11;5.70;;;4.90;;
75171;SDS011;63750;52.418;20.742;2023-05-14T12:11:40;5.50;;;5.00;;
75171;SDS011;63750;52.418;20.742;2023-05-14T12:14:12;5.00;;;4.40;;
75171;SDS011;63750;52.418;20.742;2023-05-14T12:16:42;5.60;;;5.10;;
75171;SDS011;63750;52.418;20.742;2023-05-14T12:19:10;4.60;;;4.20;;
75171;SDS011;63750;52.418;20.742;2023-05-14T12:21:39;5.20;;;4.70;;
75171;SDS011;63750;52.418;20.742;2023-05-14T12:24:09;6.60;;;5.00;;
75171;SDS011;63750;52.418;20.742;2023-05-14T12:26:38;5.30;;;4.50;;
75171;SDS011;63750;52.418;20.742;2023-05-14T12:29:11;6.30;;;4.80;;
75171;SDS011;63750;52.418;20.742;2023-05-14T12:31:43;5.20;;;4.00;;
75171;SDS011;63750;52.418;20.742;2023-05-14T12:34:11;6.30;;;4.90;;
75171;SDS011;63750;52.418;20.742;2023-05-14T12:36:39;4.60;;;4.20;;
75171;SDS011;63750;52.418;20.742;2023-05-14T12:39:06;6.10;;;5.50;;
75171;SDS011;63750;52.418;20.742;2023-05-14T12:41:33;5.60;;;4.90;;
75171;SDS011;63750;52.418;20.742;2023-05-14T12:44:00;6.20;;;4.20;;
75171;SDS011;63750;52.418;20.742;2023-05-14T12:46:28;5.30;;;4.70;;
75171;SDS011;63750;52.418;20.742;2023-05-14T12:48:56;4.80;;;4.30;;
75171;SDS011;63750;52.418;20.742;2023-05-14T12:51:23;5.00;;;4.40;;
75171;SDS011;63750;52.418;20.742;2023-05-14T12:53:50;5.30;;;4.80;;
75171;SDS011;63750;52.418;20.742;2023-05-14T12:56:17;4.50;;;4.00;;
75171;SDS011;63750;52.418;20.742;2023-05-14T12:58:44;5.10;;;4.30;;
75171;SDS011;63750;52.418;20.742;2023-05-14T13:01:11;7.40;;;4.50;;
75171;SDS011;63750;52.418;20.742;2023-05-14T13:03:38;4.90;;;4.40;;
75171;SDS011;63750;52.418;20.742;2023-05-14T13:06:06;4.70;;;4.30;;
75171;SDS011;63750;52.418;20.742;2023-05-14T13:08:33;5.10;;;4.20;;
75171;SDS011;63750;52.418;20.742;2023-05-14T13:11:00;5.60;;;4.30;;
75171;SDS011;63750;52.418;20.742;2023-05-14T13:13:27;6.50;;;4.40;;
75171;SDS011;63750;52.418;20.742;2023-05-14T13:15:54;6.60;;;4.50;;
75171;SDS011;63750;52.418;20.742;2023-05-14T13:18:21;4.60;;;4.20;;
75171;SDS011;63750;52.418;20.742;2023-05-14T13:20:48;5.80;;;4.80;;
75171;SDS011;63750;52.418;20.742;2023-05-14T13:23:15;5.70;;;4.40;;
75171;SDS011;63750;52.418;20.742;2023-05-14T13:25:42;5.00;;;4.60;;
75171;SDS011;63750;52.418;20.742;2023-05-14T13:28:09;4.80;;;4.40;;
75171;SDS011;63750;52.418;20.742;2023-05-14T13:30:36;5.40;;;4.10;;
75171;SDS011;63750;52.418;20.742;2023-05-14T13:33:03;5.00;;;4.60;;
75171;SDS011;63750;52.418;20.742;2023-05-14T13:35:31;7.10;;;4.40;;
75171;SDS011;63750;52.418;20.742;2023-05-14T13:37:58;6.40;;;4.70;;
75171;SDS011;63750;52.418;20.742;2023-05-14T13:40:25;5.00;;;4.60;;
75171;SDS011;63750;52.418;20.742;2023-05-14T13:42:52;4.80;;;4.40;;
75171;SDS011;63750;52.418;20.742;2023-05-14T13:45:20;4.80;;;4.40;;
75171;SDS011;63750;52.418;20.742;2023-05-14T13:47:46;4.50;;;4.20;;
75171;SDS011;63750;52.418;20.742;2023-05-14T13:50:13;4.20;;;3.80;;
75171;SDS011;63750;52.418;20.742;2023-05-14T13:52:41;4.50;;;4.10;;
75171;SDS011;63750;52.418;20.742;2023-05-14T13:55:08;4.80;;;4.40;;
75171;SDS011;63750;52.418;20.742;2023-05-14T13:57:35;4.80;;;4.20;;
75171;SDS011;63750;52.418;20.742;2023-05-14T14:00:02;6.90;;;4.20;;
75171;SDS011;63750;52.418;20.742;2023-05-14T14:02:31;5.30;;;4.70;;
75171;SDS011;63750;52.418;20.742;2023-05-14T14:04:58;4.90;;;4.40;;
75171;SDS011;63750;52.418;20.742;2023-05-14T14:07:25;4.60;;;4.20;;
75171;SDS011;63750;52.418;20.742;2023-05-14T14:09:52;7.80;;;7.00;;
75171;SDS011;63750;52.418;20.742;2023-05-14T14:12:19;7.30;;;5.40;;
75171;SDS011;63750;52.418;20.742;2023-05-14T14:14:46;8.60;;;4.80;;
75171;SDS011;63750;52.418;20.742;2023-05-14T14:17:13;4.60;;;4.20;;
75171;SDS011;63750;52.418;20.742;2023-05-14T14:19:40;5.70;;;4.40;;
75171;SDS011;63750;52.418;20.742;2023-05-14T14:22:07;7.70;;;4.40;;
75171;SDS011;63750;52.418;20.742;2023-05-14T14:24:34;5.20;;;4.70;;